Time;durP1;ratioP1;P1;durP2;ratioP2;P2;SDS_P1;SDS_P2;PMS_P1;PMS_P2;Temp;Humidity;BMP_temperature;BMP_pressure;BME280_temperature;BME280_humidity;BME280_pressure;Samples;Min_cycle;Max_cycle;Signal;HPM_P1;HPM_P2
2022/01/22 00:00:12;;;;;;;21.02;4.22;;;7.60;99.90;;;;;;4987693;28;20058;-62
2022/01/22 00:02:39;;;;;;;27.83;3.47;;;7.60;99.90;;;;;;4989095;28;20061;-63
2022/01/22 00:05:09;;;;;;;18.25;3.53;;;7.60;99.90;;;;;;4986812;28;20054;-63
2022/01/22 00:07:36;;;;;;;40.35;4.20;;;7.60;99.90;;;;;;4988625;28;20054;-62
2022/01/22 00:10:07;;;;;;;16.40;2.28;;;7.60;99.90;;;;;;4986996;28;22059;-63
2022/01/22 00:12:55;;;;;;;19.50;2.75;;;7.60;99.90;;;;;;4985520;28;20054;-63
2022/01/22 00:15:22;;;;;;;22.38;2.60;;;7.60;99.90;;;;;;4984896;28;20607;-63
2022/01/22 00:17:50;;;;;;;18.50;3.13;;;7.60;99.90;;;;;;4986586;28;20046;-63
2022/01/22 00:20:19;;;;;;;16.73;2.78;;;7.60;99.90;;;;;;4987809;28;20054;-63
2022/01/22 00:22:46;;;;;;;14.90;2.35;;;7.70;99.90;;;;;;4987363;28;20054;-63
2022/01/22 00:25:15;;;;;;;20.83;2.50;;;7.70;99.90;;;;;;4988373;28;20050;-63
2022/01/22 00:27:45;;;;;;;19.15;2.30;;;7.70;99.90;;;;;;4987912;28;20054;-63
2022/01/22 00:30:14;;;;;;;20.08;2.33;;;7.60;99.90;;;;;;4986297;28;20054;-63
2022/01/22 00:32:41;;;;;;;19.67;2.47;;;7.60;99.90;;;;;;4987970;28;20059;-63
2022/01/22 00:35:09;;;;;;;17.55;2.47;;;7.70;99.90;;;;;;4988426;28;20047;-63
2022/01/22 00:37:39;;;;;;;12.35;2.13;;;7.60;99.90;;;;;;4988128;28;20486;-63
2022/01/22 00:40:09;;;;;;;11.70;1.85;;;7.60;99.90;;;;;;4986809;28;21882;-63
2022/01/22 00:42:36;;;;;;;10.85;1.90;;;7.60;99.90;;;;;;4988821;28;20054;-63
2022/01/22 00:45:05;;;;;;;15.55;2.53;;;7.60;99.90;;;;;;4986430;28;20197;-63
2022/01/22 00:47:32;;;;;;;11.70;1.95;;;7.60;99.90;;;;;;4988429;28;20061;-63
2022/01/22 00:49:59;;;;;;;18.00;1.88;;;7.60;99.90;;;;;;4986354;28;20050;-63
2022/01/22 00:52:26;;;;;;;14.00;1.88;;;7.60;99.90;;;;;;4988058;28;20056;-63
2022/01/22 00:54:53;;;;;;;15.38;1.60;;;7.60;99.90;;;;;;4987237;28;20150;-63
2022/01/22 00:57:20;;;;;;;16.95;1.90;;;7.60;99.90;;;;;;4988860;28;20055;-63
2022/01/22 00:59:47;;;;;;;12.07;2.08;;;7.60;99.90;;;;;;4987850;28;20061;-63
2022/01/22 01:02:15;;;;;;;11.63;2.90;;;7.70;99.90;;;;;;4988583;28;20054;-63
2022/01/22 01:04:42;;;;;;;16.70;2.53;;;7.60;99.90;;;;;;4988412;28;20060;-63
2022/01/22 01:07:08;;;;;;;16.83;2.00;;;7.60;99.90;;;;;;4988287;28;20065;-63
2022/01/22 01:09:38;;;;;;;16.70;2.40;;;7.60;99.90;;;;;;4985290;28;22150;-63
2022/01/22 01:12:09;;;;;;;13.95;2.15;;;7.60;99.90;;;;;;4987490;28;20197;-63
2022/01/22 01:14:41;;;;;;;13.70;1.95;;;7.70;99.90;;;;;;4988176;28;20050;-63
2022/01/22 01:17:23;;;;;;;9.30;2.00;;;7.70;99.90;;;;;;4988606;28;20057;-63
2022/01/22 01:33:49;;;;;;;6.10;1.10;;;7.60;99.90;;;;;;4950896;28;20169;-63
2022/01/22 01:36:18;;;;;;;9.18;1.20;;;7.60;99.90;;;;;;4987864;28;20133;-63
2022/01/22 01:38:51;;;;;;;13.48;1.83;;;7.60;99.90;;;;;;4987270;28;20050;-63
2022/01/22 01:41:25;;;;;;;12.68;1.48;;;7.60;99.90;;;;;;4987257;28;20121;-63
2022/01/22 01:43:52;;;;;;;14.88;2.00;;;7.60;99.90;;;;;;4987473;28;20057;-63
2022/01/22 01:46:19;;;;;;;13.57;1.70;;;7.60;99.90;;;;;;4987632;28;20522;-63
2022/01/22 01:48:47;;;;;;;11.38;1.45;;;7.60;99.90;;;;;;4987212;28;20559;-63
2022/01/22 01:51:14;;;;;;;13.88;1.80;;;7.60;99.90;;;;;;4988354;28;20061;-63
2022/01/22 01:53:51;;;;;;;9.25;1.30;;;7.60;99.90;;;;;;4990992;28;20078;-63
2022/01/22 01:59:04;;;;;;;8.90;1.40;;;7.60;99.90;;;;;;4989552;28;20050;-63
2022/01/22 02:01:30;;;;;;;11.18;2.10;;;7.50;99.90;;;;;;4988392;28;20058;-63
2022/01/22 02:03:57;;;;;;;11.27;2.17;;;7.60;99.90;;;;;;4990283;28;20060;-63
2022/01/22 02:06:24;;;;;;;7.60;1.00;;;7.60;99.90;;;;;;4991295;28;20061;-63
2022/01/22 02:08:53;;;;;;;8.48;1.60;;;7.60;99.90;;;;;;4990892;28;20141;-63
2022/01/22 02:11:23;;;;;;;13.35;1.48;;;7.60;99.90;;;;;;4989630;28;20065;-63
2022/01/22 02:14:03;;;;;;;8.13;1.45;;;7.60;99.90;;;;;;4990799;28;20058;-63
2022/01/22 02:24:48;;;;;;;10.57;1.77;;;7.70;99.90;;;;;;4991191;28;21004;-63
2022/01/22 02:27:16;;;;;;;14.10;2.55;;;7.60;99.90;;;;;;4990052;28;20062;-63
2022/01/22 02:29:43;;;;;;;11.43;1.67;;;7.60;99.90;;;;;;4989994;28;20054;-63
2022/01/22 02:32:41;;;;;;;10.40;2.13;;;7.70;99.90;;;;;;4990905;28;20093;-63
2022/01/22 02:35:10;;;;;;;6.70;1.23;;;7.60;99.90;;;;;;4990066;28;20149;-63
2022/01/22 02:37:44;;;;;;;11.13;1.55;;;7.60;99.90;;;;;;4989898;28;20563;-63
2022/01/22 02:40:16;;;;;;;9.98;1.20;;;7.60;99.90;;;;;;4990521;28;20192;-63
2022/01/22 02:42:46;;;;;;;12.10;1.63;;;7.60;99.90;;;;;;4990928;28;20058;-63
2022/01/22 02:45:18;;;;;;;10.52;1.80;;;7.60;99.90;;;;;;4989572;28;20054;-63
2022/01/22 02:47:45;;;;;;;9.63;1.40;;;7.60;99.90;;;;;;4988835;28;20201;-64
2022/01/22 02:50:13;;;;;;;7.68;1.50;;;7.60;99.90;;;;;;4990409;28;20051;-63
2022/01/22 02:52:41;;;;;;;6.65;1.10;;;7.70;99.90;;;;;;4989807;28;20050;-63
2022/01/22 02:55:11;;;;;;;8.45;1.40;;;7.70;99.90;;;;;;4989127;28;20097;-63
2022/01/22 02:57:41;;;;;;;6.30;1.25;;;7.70;99.90;;;;;;4990216;28;20149;-63
2022/01/22 03:00:11;;;;;;;10.38;0.95;;;7.60;99.90;;;;;;4988718;28;20054;-63
2022/01/22 03:02:38;;;;;;;5.03;0.77;;;7.60;99.90;;;;;;4989792;28;20055;-63
2022/01/22 03:05:06;;;;;;;3.30;0.80;;;7.60;99.90;;;;;;4988621;28;20145;-63
2022/01/22 03:07:34;;;;;;;4.93;1.20;;;7.60;99.90;;;;;;4989891;28;20054;-63
2022/01/22 03:10:04;;;;;;;9.45;1.25;;;7.60;99.90;;;;;;4988907;28;20186;-63
2022/01/22 03:12:49;;;;;;;7.13;1.20;;;7.60;99.90;;;;;;4990067;28;20720;-63
2022/01/22 03:18:02;;;;;;;6.30;1.17;;;7.50;99.90;;;;;;4986823;28;20170;-63
2022/01/22 03:20:44;;;;;;;11.38;1.30;;;7.50;99.90;;;;;;4988673;28;20055;-63
2022/01/22 03:27:18;;;;;;;5.57;0.95;;;7.50;99.90;;;;;;4988966;28;20050;-63
2022/01/22 03:28:55;;;;;;;8.95;1.05;;;7.50;99.90;;;;;;4989938;28;21081;-63
2022/01/22 03:31:23;;;;;;;7.47;1.00;;;7.50;99.90;;;;;;4988870;28;20054;-64
2022/01/22 03:33:50;;;;;;;9.77;1.38;;;7.50;99.90;;;;;;4988658;28;20061;-64
2022/01/22 03:36:18;;;;;;;7.97;1.30;;;7.50;99.90;;;;;;4987928;28;20054;-64
2022/01/22 03:38:46;;;;;;;11.02;1.67;;;7.60;99.90;;;;;;4988957;28;20054;-63
2022/01/22 03:41:14;;;;;;;12.80;1.38;;;7.60;99.90;;;;;;4989489;28;20058;-63
2022/01/22 03:43:41;;;;;;;9.00;1.70;;;7.60;99.90;;;;;;4989291;28;20058;-63
2022/01/22 03:46:08;;;;;;;6.47;1.00;;;7.60;99.90;;;;;;4988659;28;20057;-63
2022/01/22 03:48:35;;;;;;;4.78;0.90;;;7.60;99.90;;;;;;4990243;28;20046;-64
2022/01/22 03:51:02;;;;;;;6.68;1.00;;;7.60;99.90;;;;;;4988661;28;20061;-63
2022/01/22 03:53:29;;;;;;;4.78;1.05;;;7.60;99.90;;;;;;4988527;28;20058;-64
2022/01/22 03:56:02;;;;;;;7.57;1.10;;;7.50;99.90;;;;;;4989500;28;20058;-63
2022/01/22 03:58:31;;;;;;;10.82;1.05;;;7.60;99.90;;;;;;4989537;28;20050;-63
2022/01/22 04:01:23;;;;;;;9.98;1.15;;;7.50;99.90;;;;;;4987964;28;20058;-63
2022/01/22 04:03:57;;;;;;;6.63;1.17;;;7.50;99.90;;;;;;4988862;28;20058;-64
2022/01/22 04:09:26;;;;;;;8.73;1.13;;;7.60;99.90;;;;;;4943638;28;20058;-64
2022/01/22 04:11:53;;;;;;;9.30;1.25;;;7.50;99.90;;;;;;4943231;28;20582;-63
2022/01/22 04:14:25;;;;;;;6.47;1.23;;;7.60;99.90;;;;;;4963795;28;20159;-63
2022/01/22 04:17:08;;;;;;;5.82;1.23;;;7.60;99.90;;;;;;4988569;28;20054;-64
2022/01/22 04:25:04;;;;;;;4.60;1.73;;;7.60;99.90;;;;;;4989443;28;20070;-64
2022/01/22 04:27:31;;;;;;;3.58;0.63;;;7.60;99.90;;;;;;4986970;28;20755;-64
2022/01/22 04:30:00;;;;;;;6.93;0.80;;;7.60;99.90;;;;;;4987635;28;20053;-63
2022/01/22 04:32:28;;;;;;;6.25;0.80;;;7.70;99.90;;;;;;4987135;28;20054;-63
2022/01/22 04:34:55;;;;;;;5.80;0.90;;;7.60;99.90;;;;;;4988381;28;20054;-64
2022/01/22 04:37:24;;;;;;;8.25;1.10;;;7.60;99.90;;;;;;4988219;28;20179;-64
2022/01/22 04:39:51;;;;;;;9.95;1.20;;;7.60;99.90;;;;;;4988357;28;20054;-64
2022/01/22 04:42:18;;;;;;;5.28;0.73;;;7.60;99.90;;;;;;4986928;28;20061;-64
2022/01/22 04:44:54;;;;;;;8.98;1.20;;;7.60;99.90;;;;;;4987502;28;20057;-64
2022/01/22 04:47:33;;;;;;;8.68;1.08;;;7.60;99.90;;;;;;4988996;28;20062;-63
2022/01/22 04:54:58;;;;;;;6.68;1.50;;;7.60;99.90;;;;;;4988894;28;20042;-63
2022/01/22 04:55:31;;;;;;;8.23;1.10;;;7.60;99.90;;;;;;4986921;28;20294;-64
2022/01/22 04:57:58;;;;;;;7.10;1.00;;;7.60;99.90;;;;;;4987524;28;20050;-63
2022/01/22 05:00:25;;;;;;;11.98;1.08;;;7.60;99.90;;;;;;4987221;28;20057;-63
2022/01/22 05:02:53;;;;;;;12.05;1.33;;;7.60;99.90;;;;;;4988018;28;21358;-63
2022/01/22 05:05:20;;;;;;;7.70;1.33;;;7.60;99.90;;;;;;4988029;28;20062;-64
2022/01/22 05:07:47;;;;;;;11.07;1.13;;;7.60;99.90;;;;;;4987532;28;20088;-63
2022/01/22 05:10:14;;;;;;;9.25;1.13;;;7.60;99.90;;;;;;4985768;28;20055;-63
2022/01/22 05:12:41;;;;;;;11.93;2.30;;;7.60;99.90;;;;;;4987125;28;20054;-64
2022/01/22 05:15:08;;;;;;;10.10;1.20;;;7.60;99.90;;;;;;4987829;28;20054;-63
2022/01/22 05:17:38;;;;;;;9.15;1.55;;;7.60;99.90;;;;;;4988424;28;20064;-63
2022/01/22 05:20:13;;;;;;;8.82;1.05;;;7.60;99.90;;;;;;4987736;28;22384;-64
2022/01/22 05:22:53;;;;;;;7.30;1.05;;;7.60;99.90;;;;;;4987840;28;20157;-63
2022/01/22 05:25:24;;;;;;;8.95;1.13;;;7.50;99.90;;;;;;4987278;28;20149;-63
2022/01/22 05:28:05;;;;;;;4.82;0.85;;;7.60;99.90;;;;;;4991425;28;20051;-64
2022/01/22 05:30:52;;;;;;;11.02;1.10;;;7.60;99.90;;;;;;4990281;28;20058;-63
2022/01/22 05:36:53;;;;;;;11.23;1.30;;;7.60;99.90;;;;;;4991084;28;20057;-64
2022/01/22 05:39:03;;;;;;;9.30;1.65;;;7.60;99.90;;;;;;4990986;28;20050;-64
2022/01/22 05:41:31;;;;;;;7.10;0.95;;;7.60;99.90;;;;;;4990525;28;20062;-63
2022/01/22 05:43:58;;;;;;;7.53;0.93;;;7.50;99.90;;;;;;4990866;28;20057;-63
2022/01/22 05:46:25;;;;;;;6.13;0.98;;;7.60;99.90;;;;;;4990239;28;20051;-63
2022/01/22 05:48:52;;;;;;;10.88;1.27;;;7.60;99.90;;;;;;4989876;28;20067;-63
2022/01/22 05:51:20;;;;;;;7.65;1.25;;;7.60;99.90;;;;;;4990246;28;20050;-63
2022/01/22 05:54:11;;;;;;;7.30;1.40;;;7.60;99.90;;;;;;4988909;28;20065;-63
2022/01/22 05:59:37;;;;;;;4.70;1.02;;;7.60;99.90;;;;;;4990254;28;20822;-63
2022/01/22 06:02:05;;;;;;;11.77;2.05;;;7.60;99.90;;;;;;4989490;28;20288;-64
2022/01/22 06:04:32;;;;;;;10.05;1.75;;;7.60;99.90;;;;;;4990174;28;20062;-63
2022/01/22 06:07:01;;;;;;;10.10;1.50;;;7.60;99.90;;;;;;4989944;28;20061;-63
2022/01/22 06:09:28;;;;;;;5.85;1.45;;;7.60;99.90;;;;;;4990088;28;20054;-64
2022/01/22 06:11:58;;;;;;;10.23;2.33;;;7.60;99.90;;;;;;4990021;28;20050;-64
2022/01/22 06:14:25;;;;;;;7.78;1.60;;;7.60;99.90;;;;;;4990600;28;20058;-63
2022/01/22 06:16:52;;;;;;;5.28;1.80;;;7.60;99.90;;;;;;4990189;28;20758;-64
2022/01/22 06:19:19;;;;;;;11.00;1.65;;;7.50;99.90;;;;;;4990526;28;20050;-63
2022/01/22 06:21:46;;;;;;;9.43;2.28;;;7.60;99.90;;;;;;4990021;28;20975;-64
2022/01/22 06:24:14;;;;;;;8.98;2.40;;;7.60;99.90;;;;;;4990809;28;20172;-63
2022/01/22 06:26:41;;;;;;;6.90;2.05;;;7.50;99.90;;;;;;4990715;28;20050;-64
2022/01/22 06:29:08;;;;;;;5.43;1.50;;;7.50;99.90;;;;;;4990539;28;20062;-64
2022/01/22 06:31:35;;;;;;;7.00;1.20;;;7.70;99.90;;;;;;4989593;28;20080;-64
2022/01/22 06:34:02;;;;;;;6.30;1.45;;;7.60;99.90;;;;;;4988334;28;20061;-64
2022/01/22 06:36:29;;;;;;;6.10;1.40;;;7.60;99.90;;;;;;4988545;28;20406;-63
2022/01/22 06:38:58;;;;;;;7.40;1.40;;;7.60;99.90;;;;;;4986122;28;22194;-64
2022/01/22 06:44:20;;;;;;;4.57;1.20;;;7.60;99.90;;;;;;4941469;28;21406;-63
2022/01/22 06:46:50;;;;;;;4.82;1.55;;;7.50;99.90;;;;;;4989976;28;20054;-63
2022/01/22 06:49:17;;;;;;;7.07;1.35;;;7.60;99.90;;;;;;4989139;28;20098;-63
2022/01/22 06:51:44;;;;;;;10.75;1.45;;;7.50;99.90;;;;;;4989826;28;20054;-63
2022/01/22 06:54:13;;;;;;;8.90;2.17;;;7.50;99.90;;;;;;4988545;28;20046;-63
2022/01/22 06:56:42;;;;;;;8.45;1.42;;;7.50;99.90;;;;;;4989980;28;20413;-63
2022/01/22 06:59:11;;;;;;;9.15;1.63;;;7.50;99.90;;;;;;4989884;28;20069;-63
2022/01/22 07:01:38;;;;;;;13.63;1.50;;;7.50;99.90;;;;;;4987647;28;20050;-63
2022/01/22 07:04:05;;;;;;;7.28;1.38;;;7.50;99.90;;;;;;4988279;28;20057;-63
2022/01/22 07:06:32;;;;;;;2.55;0.95;;;7.50;99.90;;;;;;4988459;28;20058;-65
2022/01/22 07:08:59;;;;;;;5.28;0.90;;;7.50;99.90;;;;;;4988119;28;20058;-63
2022/01/22 07:11:26;;;;;;;2.92;0.90;;;7.50;99.90;;;;;;4987349;28;20521;-63
2022/01/22 07:13:54;;;;;;;5.78;1.20;;;7.50;99.90;;;;;;4989025;28;20065;-63
2022/01/22 07:16:21;;;;;;;6.47;1.20;;;7.50;99.90;;;;;;4988723;28;20054;-63
2022/01/22 07:18:48;;;;;;;4.38;1.15;;;7.50;99.90;;;;;;4988233;28;20049;-63
2022/01/22 07:21:18;;;;;;;7.05;1.30;;;7.50;99.90;;;;;;4988358;28;20177;-63
2022/01/22 07:26:56;;;;;;;4.55;1.00;;;7.50;99.90;;;;;;4948922;28;20058;-63
2022/01/22 07:29:25;;;;;;;6.15;0.93;;;7.50;99.90;;;;;;4988912;28;21185;-63
2022/01/22 07:31:52;;;;;;;5.55;0.90;;;7.50;99.90;;;;;;4987449;28;20058;-64
2022/01/22 07:34:19;;;;;;;5.00;1.13;;;7.50;99.90;;;;;;4987372;28;20054;-64
2022/01/22 07:36:46;;;;;;;4.50;1.10;;;7.50;99.90;;;;;;4988580;28;20210;-63
2022/01/22 07:39:13;;;;;;;7.53;1.20;;;7.50;99.90;;;;;;4988216;28;20058;-63
2022/01/22 07:41:40;;;;;;;4.93;1.02;;;7.50;99.90;;;;;;4988485;28;20125;-63
2022/01/22 07:44:06;;;;;;;4.32;1.00;;;7.40;99.90;;;;;;4988872;28;20050;-63
2022/01/22 07:46:35;;;;;;;4.05;1.10;;;7.40;99.90;;;;;;4988131;28;20061;-63
2022/01/22 07:49:05;;;;;;;4.82;1.13;;;7.40;99.90;;;;;;4987748;28;22644;-63
2022/01/22 07:51:32;;;;;;;5.47;1.00;;;7.50;99.90;;;;;;4988747;28;20054;-63
2022/01/22 07:53:59;;;;;;;2.80;1.08;;;7.40;99.90;;;;;;4988248;28;20055;-63
2022/01/22 07:56:26;;;;;;;2.47;0.90;;;7.50;99.90;;;;;;4988603;28;20094;-63
2022/01/22 07:58:53;;;;;;;5.32;1.05;;;7.40;99.90;;;;;;4987433;28;20061;-63
2022/01/22 08:01:19;;;;;;;5.55;1.05;;;7.40;99.90;;;;;;4987754;28;20553;-63
2022/01/22 08:03:50;;;;;;;3.28;0.88;;;7.40;99.90;;;;;;4988718;28;22110;-63
2022/01/22 08:06:17;;;;;;;4.13;0.90;;;7.40;99.90;;;;;;4989161;28;20077;-63
2022/01/22 08:08:44;;;;;;;6.03;1.17;;;7.40;99.90;;;;;;4988637;28;20062;-63
2022/01/22 08:11:11;;;;;;;7.50;0.88;;;7.40;99.90;;;;;;4989491;28;20093;-63
2022/01/22 08:13:38;;;;;;;4.43;0.88;;;7.40;99.90;;;;;;4989057;28;20157;-63
2022/01/22 08:16:05;;;;;;;7.60;0.90;;;7.40;99.90;;;;;;4988763;28;20080;-63
2022/01/22 08:18:32;;;;;;;8.23;0.90;;;7.40;99.90;;;;;;4988453;28;20086;-63
2022/01/22 08:21:01;;;;;;;4.18;0.80;;;7.40;99.90;;;;;;4988465;28;20190;-63
2022/01/22 08:23:28;;;;;;;7.38;1.77;;;7.40;99.90;;;;;;4988250;28;20751;-63
2022/01/22 08:25:55;;;;;;;7.63;1.52;;;7.40;99.90;;;;;;4987177;28;20077;-63
2022/01/22 08:31:18;;;;;;;11.77;1.33;;;7.50;99.90;;;;;;4987411;28;20078;-63
2022/01/22 08:36:31;;;;;;;6.70;1.35;;;7.50;99.90;;;;;;4989256;28;20038;-63
2022/01/22 08:38:58;;;;;;;7.47;1.02;;;7.50;99.90;;;;;;4988698;28;20058;-64
2022/01/22 08:41:25;;;;;;;10.60;0.93;;;7.50;99.90;;;;;;4987315;28;20047;-63
2022/01/22 08:43:53;;;;;;;7.47;1.45;;;7.50;99.90;;;;;;4986894;28;20787;-63
2022/01/22 08:46:20;;;;;;;4.95;1.30;;;7.50;99.90;;;;;;4984378;28;20062;-63
2022/01/22 08:48:47;;;;;;;10.75;2.20;;;7.50;99.90;;;;;;4984703;28;20053;-64
2022/01/22 08:51:14;;;;;;;9.30;2.13;;;7.50;99.90;;;;;;4981412;28;20825;-63
2022/01/22 08:53:42;;;;;;;11.30;2.10;;;7.50;99.90;;;;;;4985849;28;20396;-63
2022/01/22 08:56:09;;;;;;;12.50;1.88;;;7.60;99.90;;;;;;4986515;28;20050;-63
2022/01/22 08:58:37;;;;;;;13.18;2.35;;;7.60;99.90;;;;;;4985924;28;20054;-63
2022/01/22 09:01:04;;;;;;;8.98;1.48;;;7.60;99.90;;;;;;4983921;28;20118;-63
2022/01/22 09:03:32;;;;;;;15.63;2.35;;;7.60;99.90;;;;;;4986848;28;20133;-63
2022/01/22 09:06:00;;;;;;;7.60;1.80;;;7.60;99.90;;;;;;4986833;28;20205;-63
2022/01/22 09:08:27;;;;;;;6.18;1.55;;;7.70;99.90;;;;;;4986875;28;20058;-63
2022/01/22 09:10:55;;;;;;;13.77;2.28;;;7.70;99.90;;;;;;4986677;28;20046;-63
2022/01/22 09:13:23;;;;;;;13.65;1.77;;;7.70;99.90;;;;;;4985308;28;20062;-63
2022/01/22 09:15:51;;;;;;;7.80;1.70;;;7.70;99.90;;;;;;4987039;28;20054;-63
2022/01/22 09:18:18;;;;;;;9.75;1.50;;;7.80;99.90;;;;;;4986466;28;20056;-63
2022/01/22 09:21:01;;;;;;;10.77;1.80;;;7.70;99.90;;;;;;4985990;28;20054;-63
2022/01/22 09:23:29;;;;;;;11.52;1.70;;;7.70;99.90;;;;;;4987619;28;20082;-63
2022/01/22 09:25:58;;;;;;;9.73;1.45;;;7.70;99.90;;;;;;4982411;28;20066;-64
2022/01/22 09:28:25;;;;;;;12.48;1.83;;;7.80;99.90;;;;;;4986544;28;20054;-63
2022/01/22 09:30:53;;;;;;;12.20;2.00;;;7.80;99.90;;;;;;4986478;28;20057;-63
2022/01/22 09:33:20;;;;;;;10.43;1.65;;;7.80;99.90;;;;;;4987665;28;20054;-63
2022/01/22 09:35:46;;;;;;;8.20;1.90;;;7.80;99.90;;;;;;4984574;28;20065;-63
2022/01/22 09:38:13;;;;;;;11.38;2.20;;;7.80;99.90;;;;;;4986197;28;20046;-63
2022/01/22 09:40:40;;;;;;;15.70;2.85;;;7.80;99.90;;;;;;4983330;28;20054;-63
2022/01/22 09:43:09;;;;;;;12.82;3.22;;;7.90;99.90;;;;;;4984883;28;21083;-63
2022/01/22 09:45:36;;;;;;;14.90;2.47;;;7.90;99.90;;;;;;4985403;28;20050;-63
2022/01/22 09:48:03;;;;;;;10.50;1.98;;;7.90;99.90;;;;;;4984128;28;20548;-63
2022/01/22 09:50:33;;;;;;;14.20;2.60;;;7.90;99.90;;;;;;4986798;28;20065;-62
2022/01/22 09:53:00;;;;;;;11.80;2.45;;;8.00;99.90;;;;;;4985224;28;20050;-62
2022/01/22 09:55:27;;;;;;;17.00;2.75;;;7.90;99.90;;;;;;4986310;28;20058;-63
2022/01/22 09:57:56;;;;;;;11.80;3.55;;;8.00;99.90;;;;;;4985335;28;20197;-63
2022/01/22 10:00:25;;;;;;;12.27;2.95;;;8.00;99.90;;;;;;4986775;28;20051;-63
2022/01/22 10:02:54;;;;;;;11.23;2.80;;;8.00;99.90;;;;;;4986505;28;20061;-62
2022/01/22 10:05:34;;;;;;;17.90;3.05;;;8.10;99.90;;;;;;4977626;28;20425;-63
2022/01/22 10:08:27;;;;;;;11.13;2.35;;;8.00;99.90;;;;;;4977394;28;20054;-62
2022/01/22 10:10:55;;;;;;;12.10;2.72;;;8.10;99.90;;;;;;4985312;28;20046;-62
2022/01/22 10:13:41;;;;;;;9.88;2.47;;;8.10;99.90;;;;;;4985076;28;20058;-62
2022/01/22 10:16:16;;;;;;;12.45;2.88;;;8.10;99.90;;;;;;4987430;28;20065;-62
2022/01/22 10:18:43;;;;;;;9.05;1.77;;;8.10;99.90;;;;;;4985796;28;20054;-62
2022/01/22 10:21:12;;;;;;;13.70;2.05;;;8.00;99.90;;;;;;4986707;28;20046;-62
2022/01/22 10:23:41;;;;;;;15.82;2.80;;;8.00;99.90;;;;;;4987333;28;20491;-62
2022/01/22 10:26:12;;;;;;;12.02;2.33;;;8.00;99.90;;;;;;4984652;28;20054;-62
2022/01/22 10:28:43;;;;;;;10.50;2.42;;;8.00;99.90;;;;;;4986572;28;20062;-62
2022/01/22 10:31:18;;;;;;;11.02;2.45;;;8.00;99.90;;;;;;4979306;28;20057;-62
2022/01/22 10:34:04;;;;;;;17.88;2.60;;;8.00;99.90;;;;;;4981682;28;20058;-62
2022/01/22 10:36:31;;;;;;;16.00;3.33;;;8.00;99.90;;;;;;4985771;28;20129;-62
2022/01/22 10:38:59;;;;;;;19.13;2.20;;;8.10;99.90;;;;;;4984711;28;20168;-62
2022/01/22 10:41:37;;;;;;;9.18;2.90;;;8.00;99.90;;;;;;4986583;28;21160;-62
2022/01/22 10:44:07;;;;;;;16.40;2.92;;;8.00;99.90;;;;;;4980978;28;20145;-62
2022/01/22 10:46:46;;;;;;;13.57;2.38;;;8.10;99.90;;;;;;4986231;28;20110;-63
2022/01/22 10:49:16;;;;;;;13.68;2.53;;;8.10;99.90;;;;;;4984585;28;20477;-63
2022/01/22 10:51:50;;;;;;;8.38;2.20;;;8.10;99.90;;;;;;4986213;28;20137;-63
2022/01/22 10:54:17;;;;;;;11.65;2.55;;;8.10;99.90;;;;;;4981156;28;20054;-63
2022/01/22 10:56:46;;;;;;;10.48;2.70;;;8.10;99.90;;;;;;4984300;28;20133;-63
2022/01/22 10:59:13;;;;;;;9.90;2.63;;;8.10;99.90;;;;;;4985382;28;20633;-63
2022/01/22 11:01:52;;;;;;;11.38;2.20;;;8.10;99.90;;;;;;4973848;28;20058;-62
2022/01/22 11:04:23;;;;;;;18.08;2.38;;;8.10;99.90;;;;;;4984709;28;20058;-62
2022/01/22 11:06:53;;;;;;;13.95;2.50;;;8.10;99.90;;;;;;4985182;28;20054;-62
2022/01/22 11:09:21;;;;;;;9.57;2.50;;;8.10;99.90;;;;;;4986927;28;20276;-62
2022/01/22 11:11:48;;;;;;;9.60;2.58;;;8.10;99.90;;;;;;4986118;28;20055;-62
2022/01/22 11:14:16;;;;;;;9.07;2.35;;;8.10;99.90;;;;;;4986197;28;20056;-62
2022/01/22 11:16:46;;;;;;;10.27;2.55;;;8.10;99.90;;;;;;4987159;28;20054;-62
2022/01/22 11:19:16;;;;;;;12.23;2.60;;;8.20;99.90;;;;;;4986622;28;20506;-62
2022/01/22 11:21:49;;;;;;;12.07;2.22;;;8.20;99.90;;;;;;4982489;28;20046;-62
2022/01/22 11:24:19;;;;;;;13.55;3.28;;;8.20;99.90;;;;;;4983271;28;20057;-62
2022/01/22 11:26:50;;;;;;;12.93;2.28;;;8.20;99.90;;;;;;4984128;28;20058;-62
2022/01/22 11:29:18;;;;;;;12.73;2.85;;;8.20;99.90;;;;;;4985796;28;20062;-62
2022/01/22 11:31:47;;;;;;;16.70;2.60;;;8.20;99.90;;;;;;4985186;28;20211;-62
2022/01/22 11:34:17;;;;;;;10.73;2.65;;;8.20;99.90;;;;;;4985133;28;20058;-62
2022/01/22 11:36:59;;;;;;;13.07;2.50;;;8.20;99.90;;;;;;4984642;28;20055;-62
2022/01/22 11:39:27;;;;;;;13.77;3.25;;;8.30;99.90;;;;;;4984063;28;20064;-62
2022/01/22 11:41:57;;;;;;;18.35;2.72;;;8.20;99.90;;;;;;4984336;28;20456;-62
2022/01/22 11:44:32;;;;;;;12.75;2.83;;;8.20;99.90;;;;;;4971255;28;20276;-62
2022/01/22 11:47:17;;;;;;;11.88;2.28;;;8.30;99.90;;;;;;4984837;28;20066;-62
2022/01/22 11:50:06;;;;;;;24.58;2.92;;;8.20;99.90;;;;;;4984557;28;20301;-62
2022/01/22 11:52:37;;;;;;;13.82;2.78;;;8.30;99.90;;;;;;4984008;28;20055;-62
2022/01/22 11:55:09;;;;;;;11.32;3.60;;;8.20;99.90;;;;;;4984052;28;20077;-62
2022/01/22 11:57:37;;;;;;;12.00;2.85;;;8.30;99.90;;;;;;4984747;28;20060;-62
2022/01/22 12:00:24;;;;;;;13.88;3.00;;;8.30;99.90;;;;;;4984794;28;20064;-62
2022/01/22 12:03:20;;;;;;;10.20;2.72;;;8.30;99.90;;;;;;4984543;28;20171;-62
2022/01/22 12:06:07;;;;;;;12.82;3.60;;;8.30;99.90;;;;;;4984297;28;20058;-62
2022/01/22 12:09:13;;;;;;;11.35;3.03;;;8.30;99.90;;;;;;4983561;28;20050;-62
2022/01/22 12:14:53;;;;;;;11.93;3.20;;;8.20;99.90;;;;;;4983026;28;20046;-62
2022/01/22 12:17:36;;;;;;;8.85;2.60;;;8.20;99.90;;;;;;4984532;28;20054;-62
2022/01/22 12:20:17;;;;;;;13.35;3.08;;;8.30;99.90;;;;;;4972753;28;20058;-62
2022/01/22 12:22:49;;;;;;;21.40;4.00;;;8.20;99.90;;;;;;4981721;28;20663;-60
2022/01/22 12:25:49;;;;;;;17.50;3.25;;;8.20;99.90;;;;;;4982750;28;20140;-60
2022/01/22 12:28:34;;;;;;;11.95;3.15;;;8.20;99.90;;;;;;4983766;28;20337;-60
2022/01/22 12:31:03;;;;;;;12.02;2.85;;;8.20;99.90;;;;;;4984213;28;20058;-59
2022/01/22 12:33:54;;;;;;;13.77;2.67;;;8.20;99.90;;;;;;4983887;28;20176;-59
2022/01/22 12:36:26;;;;;;;17.52;3.67;;;8.20;99.90;;;;;;4966481;28;20106;-59
2022/01/22 12:39:04;;;;;;;14.07;3.03;;;8.20;99.90;;;;;;4984183;28;20133;-58
2022/01/22 12:41:36;;;;;;;14.77;2.80;;;8.30;99.90;;;;;;4983647;28;21867;-59
2022/01/22 12:44:05;;;;;;;13.73;3.20;;;8.30;99.90;;;;;;4983749;28;20149;-59
2022/01/22 12:46:33;;;;;;;11.68;2.70;;;8.30;99.90;;;;;;4984497;28;20145;-58
2022/01/22 12:49:01;;;;;;;11.60;2.20;;;8.30;99.90;;;;;;4984715;28;20066;-58
2022/01/22 12:51:28;;;;;;;10.68;2.28;;;8.30;99.90;;;;;;4983725;28;20050;-59
2022/01/22 12:53:55;;;;;;;13.13;2.33;;;8.30;99.90;;;;;;4984028;28;20050;-58
2022/01/22 12:56:51;;;;;;;7.85;2.10;;;8.30;99.60;;;;;;4982811;28;20229;-59
2022/01/22 12:59:19;;;;;;;12.30;2.03;;;8.20;99.50;;;;;;4981717;28;20054;-58
2022/01/22 13:01:51;;;;;;;10.65;2.17;;;8.20;99.40;;;;;;4981354;28;20109;-59
2022/01/22 13:04:22;;;;;;;12.25;2.38;;;8.20;99.40;;;;;;4982651;28;20058;-59
2022/01/22 13:06:51;;;;;;;8.30;2.15;;;8.20;99.30;;;;;;4983998;28;20051;-59
2022/01/22 13:09:18;;;;;;;8.23;1.58;;;8.20;99.30;;;;;;4982406;28;20058;-59
2022/01/22 13:11:50;;;;;;;9.50;2.72;;;8.20;99.10;;;;;;4982990;28;22292;-59
2022/01/22 13:14:26;;;;;;;14.85;3.33;;;8.10;99.00;;;;;;4982342;28;20146;-59
2022/01/22 13:16:55;;;;;;;9.68;1.70;;;8.10;99.00;;;;;;4984264;28;20508;-58
2022/01/22 13:19:24;;;;;;;6.63;1.85;;;8.00;99.00;;;;;;4984225;28;20054;-59
2022/01/22 13:21:53;;;;;;;10.80;1.83;;;8.00;99.00;;;;;;4984852;28;20061;-59
2022/01/22 13:24:24;;;;;;;10.90;2.13;;;8.00;98.90;;;;;;4985619;28;20064;-59
2022/01/22 13:26:57;;;;;;;6.88;1.70;;;8.00;99.00;;;;;;4984435;28;20050;-58
2022/01/22 13:29:28;;;;;;;15.57;2.13;;;8.00;99.00;;;;;;4983725;28;20833;-58
2022/01/22 13:32:01;;;;;;;13.57;2.10;;;8.00;99.10;;;;;;4983873;28;20109;-58
2022/01/22 13:34:38;;;;;;;12.40;2.00;;;8.00;99.10;;;;;;4982570;28;20059;-59
2022/01/22 13:40:11;;;;;;;9.07;2.13;;;8.00;99.10;;;;;;4982505;28;20178;-58
2022/01/22 13:47:41;;;;;;;6.90;1.63;;;8.10;99.10;;;;;;4981541;28;20129;-59
2022/01/22 13:48:25;;;;;;;9.18;1.52;;;8.00;99.00;;;;;;4985447;28;20065;-59
2022/01/22 13:50:52;;;;;;;9.18;1.75;;;8.00;98.90;;;;;;4985828;28;20181;-59
2022/01/22 13:53:20;;;;;;;8.23;1.60;;;8.00;98.90;;;;;;4985623;28;20782;-59
2022/01/22 13:55:57;;;;;;;12.73;1.88;;;8.00;98.90;;;;;;4985236;28;20054;-59
2022/01/22 13:58:24;;;;;;;9.32;1.40;;;8.10;98.90;;;;;;4985636;28;20060;-59
2022/01/22 14:00:53;;;;;;;7.45;1.20;;;8.00;98.80;;;;;;4985552;28;20169;-59
2022/01/22 14:03:30;;;;;;;9.10;1.40;;;8.00;98.80;;;;;;4985479;28;20058;-59
2022/01/22 14:05:57;;;;;;;10.68;2.22;;;8.00;98.80;;;;;;4985917;28;20059;-59
2022/01/22 14:08:43;;;;;;;8.23;1.67;;;8.00;98.70;;;;;;4985832;28;20058;-59
2022/01/22 14:11:12;;;;;;;4.93;1.10;;;8.00;98.40;;;;;;4986089;28;20173;-59
2022/01/22 14:13:40;;;;;;;11.20;1.63;;;8.00;98.60;;;;;;4985409;28;20059;-59
2022/01/22 14:16:18;;;;;;;7.45;1.67;;;8.00;98.60;;;;;;4984796;28;20842;-59
2022/01/22 14:18:46;;;;;;;12.13;1.80;;;8.00;98.50;;;;;;4986315;28;20145;-58